sensor_id;sensor_type;location;lat;lon;timestamp;temperature;humidity
4757;DHT22;2392;52.578;13.426;2023-07-13T00:00:22;20.20;94.50
4757;DHT22;2392;52.578;13.426;2023-07-13T00:02:49;20.10;94.60
4757;DHT22;2392;52.578;13.426;2023-07-13T00:05:19;20.10;94.60
4757;DHT22;2392;52.578;13.426;2023-07-13T00:07:46;20.10;94.70
4757;DHT22;2392;52.578;13.426;2023-07-13T00:10:14;20.10;94.80
4757;DHT22;2392;52.578;13.426;2023-07-13T00:12:41;20.00;94.90
4757;DHT22;2392;52.578;13.426;2023-07-13T00:15:14;20.00;94.90
4757;DHT22;2392;52.578;13.426;2023-07-13T00:17:42;20.00;95.00
4757;DHT22;2392;52.578;13.426;2023-07-13T00:20:11;19.90;95.00
4757;DHT22;2392;52.578;13.426;2023-07-13T00:22:39;19.90;95.00
4757;DHT22;2392;52.578;13.426;2023-07-13T00:25:07;19.90;95.00
4757;DHT22;2392;52.578;13.426;2023-07-13T00:27:35;19.90;95.20
4757;DHT22;2392;52.578;13.426;2023-07-13T00:30:02;19.90;95.60
4757;DHT22;2392;52.578;13.426;2023-07-13T00:32:32;19.80;95.50
4757;DHT22;2392;52.578;13.426;2023-07-13T00:34:59;19.80;95.50
4757;DHT22;2392;52.578;13.426;2023-07-13T00:37:27;19.80;95.70
4757;DHT22;2392;52.578;13.426;2023-07-13T00:39:54;19.80;95.80
4757;DHT22;2392;52.578;13.426;2023-07-13T00:42:21;19.70;95.80
4757;DHT22;2392;52.578;13.426;2023-07-13T00:45:03;19.70;95.80
4757;DHT22;2392;52.578;13.426;2023-07-13T00:47:32;19.70;95.90
4757;DHT22;2392;52.578;13.426;2023-07-13T00:50:00;19.70;95.90
4757;DHT22;2392;52.578;13.426;2023-07-13T00:52:28;19.60;96.00
4757;DHT22;2392;52.578;13.426;2023-07-13T00:54:56;19.60;96.10
4757;DHT22;2392;52.578;13.426;2023-07-13T00:57:23;19.60;96.10
4757;DHT22;2392;52.578;13.426;2023-07-13T00:59:59;19.60;96.20
4757;DHT22;2392;52.578;13.426;2023-07-13T01:02:34;19.60;96.30
4757;DHT22;2392;52.578;13.426;2023-07-13T01:05:04;19.60;96.30
4757;DHT22;2392;52.578;13.426;2023-07-13T01:07:35;19.60;96.30
4757;DHT22;2392;52.578;13.426;2023-07-13T01:10:03;19.50;96.20
4757;DHT22;2392;52.578;13.426;2023-07-13T01:12:31;19.50;96.30
4757;DHT22;2392;52.578;13.426;2023-07-13T01:14:58;19.50;96.50
4757;DHT22;2392;52.578;13.426;2023-07-13T01:17:26;19.50;96.60
4757;DHT22;2392;52.578;13.426;2023-07-13T01:19:55;19.40;96.60
4757;DHT22;2392;52.578;13.426;2023-07-13T01:22:24;19.30;96.60
4757;DHT22;2392;52.578;13.426;2023-07-13T01:24:53;19.30;96.70
4757;DHT22;2392;52.578;13.426;2023-07-13T01:27:25;19.30;96.90
4757;DHT22;2392;52.578;13.426;2023-07-13T01:29:53;19.20;96.90
4757;DHT22;2392;52.578;13.426;2023-07-13T01:32:29;19.20;96.90
4757;DHT22;2392;52.578;13.426;2023-07-13T01:34:58;19.20;97.00
4757;DHT22;2392;52.578;13.426;2023-07-13T01:37:27;19.20;97.20
4757;DHT22;2392;52.578;13.426;2023-07-13T01:40:03;19.10;97.20
4757;DHT22;2392;52.578;13.426;2023-07-13T01:42:30;19.10;97.30
4757;DHT22;2392;52.578;13.426;2023-07-13T01:44:58;19.20;97.30
4757;DHT22;2392;52.578;13.426;2023-07-13T01:47:25;19.20;97.40
4757;DHT22;2392;52.578;13.426;2023-07-13T01:49:53;19.20;97.40
4757;DHT22;2392;52.578;13.426;2023-07-13T01:52:21;19.20;97.40
4757;DHT22;2392;52.578;13.426;2023-07-13T01:54:52;19.20;97.50
4757;DHT22;2392;52.578;13.426;2023-07-13T01:57:19;19.10;97.50
4757;DHT22;2392;52.578;13.426;2023-07-13T01:59:48;19.10;97.60
4757;DHT22;2392;52.578;13.426;2023-07-13T02:02:16;19.10;97.70
4757;DHT22;2392;52.578;13.426;2023-07-13T02:04:43;19.10;97.80
4757;DHT22;2392;52.578;13.426;2023-07-13T02:07:11;19.00;97.90
4757;DHT22;2392;52.578;13.426;2023-07-13T02:09:38;19.00;98.10
4757;DHT22;2392;52.578;13.426;2023-07-13T02:12:07;18.90;98.20
4757;DHT22;2392;52.578;13.426;2023-07-13T02:14:35;18.90;98.40
4757;DHT22;2392;52.578;13.426;2023-07-13T02:17:02;18.90;98.50
4757;DHT22;2392;52.578;13.426;2023-07-13T02:19:30;18.90;98.70
4757;DHT22;2392;52.578;13.426;2023-07-13T02:21:57;18.90;98.80
4757;DHT22;2392;52.578;13.426;2023-07-13T02:24:24;18.90;99.00
4757;DHT22;2392;52.578;13.426;2023-07-13T02:26:53;18.80;99.00
4757;DHT22;2392;52.578;13.426;2023-07-13T02:29:22;18.80;99.00
4757;DHT22;2392;52.578;13.426;2023-07-13T02:31:49;18.80;99.10
4757;DHT22;2392;52.578;13.426;2023-07-13T02:34:16;18.80;99.30
4757;DHT22;2392;52.578;13.426;2023-07-13T02:36:43;18.60;99.50
4757;DHT22;2392;52.578;13.426;2023-07-13T02:39:13;18.60;99.70
4757;DHT22;2392;52.578;13.426;2023-07-13T02:41:41;18.50;99.80
4757;DHT22;2392;52.578;13.426;2023-07-13T02:44:09;18.50;99.90
4757;DHT22;2392;52.578;13.426;2023-07-13T02:46:37;18.40;99.90
4757;DHT22;2392;52.578;13.426;2023-07-13T02:49:04;18.40;99.90
4757;DHT22;2392;52.578;13.426;2023-07-13T02:51:32;18.40;99.90
4757;DHT22;2392;52.578;13.426;2023-07-13T02:54:01;18.40;99.90
4757;DHT22;2392;52.578;13.426;2023-07-13T02:56:30;18.40;99.90
4757;DHT22;2392;52.578;13.426;2023-07-13T02:58:59;18.30;99.90
4757;DHT22;2392;52.578;13.426;2023-07-13T03:01:26;18.40;99.90
4757;DHT22;2392;52.578;13.426;2023-07-13T03:03:55;18.30;99.90
4757;DHT22;2392;52.578;13.426;2023-07-13T03:06:22;18.30;99.90
4757;DHT22;2392;52.578;13.426;2023-07-13T03:08:53;18.30;99.90
4757;DHT22;2392;52.578;13.426;2023-07-13T03:11:20;18.30;99.90
4757;DHT22;2392;52.578;13.426;2023-07-13T03:13:54;18.30;99.90
4757;DHT22;2392;52.578;13.426;2023-07-13T03:16:23;18.30;99.90
4757;DHT22;2392;52.578;13.426;2023-07-13T03:18:52;18.30;99.90
4757;DHT22;2392;52.578;13.426;2023-07-13T03:21:21;18.30;99.90
4757;DHT22;2392;52.578;13.426;2023-07-13T03:23:48;18.30;99.90
4757;DHT22;2392;52.578;13.426;2023-07-13T03:26:17;18.30;99.90
4757;DHT22;2392;52.578;13.426;2023-07-13T03:28:45;18.30;99.90
4757;DHT22;2392;52.578;13.426;2023-07-13T03:31:19;18.30;99.90
4757;DHT22;2392;52.578;13.426;2023-07-13T03:33:46;18.20;99.90
4757;DHT22;2392;52.578;13.426;2023-07-13T03:36:16;18.20;99.90
4757;DHT22;2392;52.578;13.426;2023-07-13T03:38:46;18.20;99.90
4757;DHT22;2392;52.578;13.426;2023-07-13T03:41:15;18.20;99.90
4757;DHT22;2392;52.578;13.426;2023-07-13T03:43:44;18.20;99.90
4757;DHT22;2392;52.578;13.426;2023-07-13T03:46:11;18.30;99.90
4757;DHT22;2392;52.578;13.426;2023-07-13T03:48:40;18.30;99.90
4757;DHT22;2392;52.578;13.426;2023-07-13T03:51:09;18.30;99.90
4757;DHT22;2392;52.578;13.426;2023-07-13T03:53:39;18.30;99.90
4757;DHT22;2392;52.578;13.426;2023-07-13T03:56:08;18.40;99.90
4757;DHT22;2392;52.578;13.426;2023-07-13T03:58:37;18.40;99.90
4757;DHT22;2392;52.578;13.426;2023-07-13T04:01:12;18.40;99.90
4757;DHT22;2392;52.578;13.426;2023-07-13T04:03:40;18.40;99.90
4757;DHT22;2392;52.578;13.426;2023-07-13T04:06:16;18.40;99.90
4757;DHT22;2392;52.578;13.426;2023-07-13T04:08:48;18.40;99.90
4757;DHT22;2392;52.578;13.426;2023-07-13T04:11:17;18.40;99.90
4757;DHT22;2392;52.578;13.426;2023-07-13T04:13:44;18.40;99.90
4757;DHT22;2392;52.578;13.426;2023-07-13T04:16:12;18.40;99.90
4757;DHT22;2392;52.578;13.426;2023-07-13T04:18:39;18.40;99.90
4757;DHT22;2392;52.578;13.426;2023-07-13T04:21:07;18.40;99.90
4757;DHT22;2392;52.578;13.426;2023-07-13T04:23:34;18.40;99.90
4757;DHT22;2392;52.578;13.426;2023-07-13T04:26:01;18.50;99.90
4757;DHT22;2392;52.578;13.426;2023-07-13T04:28:30;18.40;99.90
4757;DHT22;2392;52.578;13.426;2023-07-13T04:30:57;18.40;99.90
4757;DHT22;2392;52.578;13.426;2023-07-13T04:33:24;18.40;99.90
4757;DHT22;2392;52.578;13.426;2023-07-13T04:35:52;18.40;99.90
4757;DHT22;2392;52.578;13.426;2023-07-13T04:38:20;18.50;99.90
4757;DHT22;2392;52.578;13.426;2023-07-13T04:40:47;18.50;99.90
4757;DHT22;2392;52.578;13.426;2023-07-13T04:43:14;18.50;99.90
4757;DHT22;2392;52.578;13.426;2023-07-13T04:45:42;18.50;99.90
4757;DHT22;2392;52.578;13.426;2023-07-13T04:48:09;18.60;99.90
4757;DHT22;2392;52.578;13.426;2023-07-13T04:50:37;18.60;99.90
4757;DHT22;2392;52.578;13.426;2023-07-13T04:53:04;18.60;99.90
4757;DHT22;2392;52.578;13.426;2023-07-13T04:55:31;18.60;99.90
4757;DHT22;2392;52.578;13.426;2023-07-13T04:57:58;18.70;99.90
4757;DHT22;2392;52.578;13.426;2023-07-13T05:00:26;18.70;99.90
4757;DHT22;2392;52.578;13.426;2023-07-13T05:02:56;18.70;99.90
4757;DHT22;2392;52.578;13.426;2023-07-13T05:05:23;18.80;99.90
4757;DHT22;2392;52.578;13.426;2023-07-13T05:07:51;18.80;99.90
4757;DHT22;2392;52.578;13.426;2023-07-13T05:10:18;18.80;99.90
4757;DHT22;2392;52.578;13.426;2023-07-13T05:12:45;18.80;99.90
4757;DHT22;2392;52.578;13.426;2023-07-13T05:15:13;18.90;99.90
4757;DHT22;2392;52.578;13.426;2023-07-13T05:17:40;18.90;99.90
4757;DHT22;2392;52.578;13.426;2023-07-13T05:20:09;18.90;99.90
4757;DHT22;2392;52.578;13.426;2023-07-13T05:22:36;18.90;99.90
4757;DHT22;2392;52.578;13.426;2023-07-13T05:25:05;18.90;99.90
4757;DHT22;2392;52.578;13.426;2023-07-13T05:27:33;19.00;99.90
4757;DHT22;2392;52.578;13.426;2023-07-13T05:30:00;19.10;99.90
4757;DHT22;2392;52.578;13.426;2023-07-13T05:32:27;19.10;99.90
4757;DHT22;2392;52.578;13.426;2023-07-13T05:34:54;19.20;99.90
4757;DHT22;2392;52.578;13.426;2023-07-13T05:37:23;19.20;99.90
4757;DHT22;2392;52.578;13.426;2023-07-13T05:39:50;19.20;99.90
4757;DHT22;2392;52.578;13.426;2023-07-13T05:42:17;19.30;99.90
4757;DHT22;2392;52.578;13.426;2023-07-13T05:44:44;19.30;99.90
4757;DHT22;2392;52.578;13.426;2023-07-13T05:47:11;19.40;99.90
4757;DHT22;2392;52.578;13.426;2023-07-13T05:49:39;19.50;99.90
4757;DHT22;2392;52.578;13.426;2023-07-13T05:52:07;19.50;99.90
4757;DHT22;2392;52.578;13.426;2023-07-13T05:54:35;19.60;99.90
4757;DHT22;2392;52.578;13.426;2023-07-13T05:57:02;19.60;99.90
4757;DHT22;2392;52.578;13.426;2023-07-13T05:59:30;19.70;99.90
4757;DHT22;2392;52.578;13.426;2023-07-13T06:01:57;19.70;99.90
4757;DHT22;2392;52.578;13.426;2023-07-13T06:04:24;19.70;99.90
4757;DHT22;2392;52.578;13.426;2023-07-13T06:06:50;19.80;99.90
4757;DHT22;2392;52.578;13.426;2023-07-13T06:09:17;19.80;99.90
4757;DHT22;2392;52.578;13.426;2023-07-13T06:11:46;19.80;99.90
4757;DHT22;2392;52.578;13.426;2023-07-13T06:14:13;19.90;99.90
4757;DHT22;2392;52.578;13.426;2023-07-13T06:16:40;20.00;99.90
4757;DHT22;2392;52.578;13.426;2023-07-13T06:19:07;20.00;99.90
4757;DHT22;2392;52.578;13.426;2023-07-13T06:21:34;20.10;99.90
4757;DHT22;2392;52.578;13.426;2023-07-13T06:24:02;20.20;99.90
4757;DHT22;2392;52.578;13.426;2023-07-13T06:26:29;20.30;99.90
4757;DHT22;2392;52.578;13.426;2023-07-13T06:28:57;20.40;99.90
4757;DHT22;2392;52.578;13.426;2023-07-13T06:31:24;20.40;99.90
4757;DHT22;2392;52.578;13.426;2023-07-13T06:33:51;20.50;99.90
4757;DHT22;2392;52.578;13.426;2023-07-13T06:36:18;20.50;99.90
4757;DHT22;2392;52.578;13.426;2023-07-13T06:38:45;20.50;99.90
4757;DHT22;2392;52.578;13.426;2023-07-13T06:41:13;20.60;99.90
4757;DHT22;2392;52.578;13.426;2023-07-13T06:43:40;20.60;99.90
4757;DHT22;2392;52.578;13.426;2023-07-13T06:46:09;20.60;99.90
4757;DHT22;2392;52.578;13.426;2023-07-13T06:48:36;20.60;99.90
4757;DHT22;2392;52.578;13.426;2023-07-13T06:51:03;20.70;99.90
4757;DHT22;2392;52.578;13.426;2023-07-13T06:53:30;20.70;99.90
4757;DHT22;2392;52.578;13.426;2023-07-13T06:55:58;20.80;99.90
4757;DHT22;2392;52.578;13.426;2023-07-13T06:58:25;20.80;99.90
4757;DHT22;2392;52.578;13.426;2023-07-13T07:00:52;20.80;99.90
4757;DHT22;2392;52.578;13.426;2023-07-13T07:03:20;20.80;99.90
4757;DHT22;2392;52.578;13.426;2023-07-13T07:05:47;20.80;99.90
4757;DHT22;2392;52.578;13.426;2023-07-13T07:08:14;20.80;99.90
4757;DHT22;2392;52.578;13.426;2023-07-13T07:10:42;20.90;99.90
4757;DHT22;2392;52.578;13.426;2023-07-13T07:13:09;21.00;99.90
4757;DHT22;2392;52.578;13.426;2023-07-13T07:15:36;21.00;99.90
4757;DHT22;2392;52.578;13.426;2023-07-13T07:18:03;21.00;99.90
4757;DHT22;2392;52.578;13.426;2023-07-13T07:20:31;21.10;99.40
4757;DHT22;2392;52.578;13.426;2023-07-13T07:22:59;21.20;99.00
4757;DHT22;2392;52.578;13.426;2023-07-13T07:25:26;21.30;98.60
4757;DHT22;2392;52.578;13.426;2023-07-13T07:27:53;21.40;98.60
4757;DHT22;2392;52.578;13.426;2023-07-13T07:30:20;21.50;98.70
4757;DHT22;2392;52.578;13.426;2023-07-13T07:32:47;21.50;98.30
4757;DHT22;2392;52.578;13.426;2023-07-13T07:35:14;21.60;98.10
4757;DHT22;2392;52.578;13.426;2023-07-13T07:37:42;21.70;97.70
4757;DHT22;2392;52.578;13.426;2023-07-13T07:40:11;21.80;97.90
4757;DHT22;2392;52.578;13.426;2023-07-13T07:42:38;21.90;97.60
4757;DHT22;2392;52.578;13.426;2023-07-13T07:45:06;21.90;96.90
4757;DHT22;2392;52.578;13.426;2023-07-13T07:47:33;22.00;96.70
4757;DHT22;2392;52.578;13.426;2023-07-13T07:50:00;22.10;96.20
4757;DHT22;2392;52.578;13.426;2023-07-13T07:52:26;22.20;96.80
4757;DHT22;2392;52.578;13.426;2023-07-13T07:54:55;22.40;95.40
4757;DHT22;2392;52.578;13.426;2023-07-13T07:57:22;22.50;94.40
4757;DHT22;2392;52.578;13.426;2023-07-13T07:59:49;22.60;94.50
4757;DHT22;2392;52.578;13.426;2023-07-13T08:02:16;22.60;93.90
4757;DHT22;2392;52.578;13.426;2023-07-13T08:04:43;22.70;93.80
4757;DHT22;2392;52.578;13.426;2023-07-13T08:07:10;22.80;93.60
4757;DHT22;2392;52.578;13.426;2023-07-13T08:09:37;22.80;93.80
4757;DHT22;2392;52.578;13.426;2023-07-13T08:12:06;22.80;93.60
4757;DHT22;2392;52.578;13.426;2023-07-13T08:14:33;22.90;93.90
4757;DHT22;2392;52.578;13.426;2023-07-13T08:17:00;23.10;93.90
4757;DHT22;2392;52.578;13.426;2023-07-13T08:19:27;23.10;93.10
4757;DHT22;2392;52.578;13.426;2023-07-13T08:21:54;23.10;93.40
4757;DHT22;2392;52.578;13.426;2023-07-13T08:24:22;23.20;93.90
4757;DHT22;2392;52.578;13.426;2023-07-13T08:26:50;23.20;93.80
4757;DHT22;2392;52.578;13.426;2023-07-13T08:29:20;23.30;94.10
4757;DHT22;2392;52.578;13.426;2023-07-13T08:31:47;23.20;93.80
4757;DHT22;2392;52.578;13.426;2023-07-13T08:34:14;23.10;94.10
4757;DHT22;2392;52.578;13.426;2023-07-13T08:36:43;23.20;94.30
4757;DHT22;2392;52.578;13.426;2023-07-13T08:39:10;23.10;94.20
4757;DHT22;2392;52.578;13.426;2023-07-13T08:41:37;23.20;94.70
4757;DHT22;2392;52.578;13.426;2023-07-13T08:44:05;23.30;94.80
4757;DHT22;2392;52.578;13.426;2023-07-13T08:46:40;23.40;94.20
4757;DHT22;2392;52.578;13.426;2023-07-13T08:49:11;23.40;93.70
4757;DHT22;2392;52.578;13.426;2023-07-13T08:51:43;23.40;93.90
4757;DHT22;2392;52.578;13.426;2023-07-13T08:54:18;23.40;93.90
4757;DHT22;2392;52.578;13.426;2023-07-13T08:56:49;23.40;93.50
4757;DHT22;2392;52.578;13.426;2023-07-13T08:59:21;23.40;93.50
4757;DHT22;2392;52.578;13.426;2023-07-13T09:04:50;23.50;92.90
4757;DHT22;2392;52.578;13.426;2023-07-13T09:07:24;23.50;92.90
4757;DHT22;2392;52.578;13.426;2023-07-13T09:10:03;23.40;92.20
4757;DHT22;2392;52.578;13.426;2023-07-13T09:12:39;23.40;92.40
4757;DHT22;2392;52.578;13.426;2023-07-13T09:15:21;23.30;91.80
4757;DHT22;2392;52.578;13.426;2023-07-13T09:17:52;23.20;91.60
4757;DHT22;2392;52.578;13.426;2023-07-13T09:20:26;23.30;91.20
4757;DHT22;2392;52.578;13.426;2023-07-13T09:22:56;23.20;91.00
4757;DHT22;2392;52.578;13.426;2023-07-13T09:25:29;23.10;90.50
4757;DHT22;2392;52.578;13.426;2023-07-13T09:28:00;23.10;90.90
4757;DHT22;2392;52.578;13.426;2023-07-13T09:30:34;23.20;90.90
4757;DHT22;2392;52.578;13.426;2023-07-13T09:33:05;23.20;90.30
4757;DHT22;2392;52.578;13.426;2023-07-13T09:35:34;23.30;90.80
4757;DHT22;2392;52.578;13.426;2023-07-13T09:38:11;23.40;91.30
4757;DHT22;2392;52.578;13.426;2023-07-13T09:40:47;23.60;90.70
4757;DHT22;2392;52.578;13.426;2023-07-13T09:43:17;23.70;90.70
4757;DHT22;2392;52.578;13.426;2023-07-13T09:45:46;23.80;90.60
4757;DHT22;2392;52.578;13.426;2023-07-13T09:48:16;23.80;90.20
4757;DHT22;2392;52.578;13.426;2023-07-13T09:50:44;23.70;90.00
4757;DHT22;2392;52.578;13.426;2023-07-13T09:53:12;23.80;90.20
4757;DHT22;2392;52.578;13.426;2023-07-13T09:55:41;24.00;89.60
4757;DHT22;2392;52.578;13.426;2023-07-13T09:58:11;24.10;89.40
4757;DHT22;2392;52.578;13.426;2023-07-13T10:00:39;24.10;89.80
4757;DHT22;2392;52.578;13.426;2023-07-13T10:03:17;24.20;89.30
4757;DHT22;2392;52.578;13.426;2023-07-13T10:05:47;24.30;87.80
4757;DHT22;2392;52.578;13.426;2023-07-13T10:08:21;24.30;88.10
4757;DHT22;2392;52.578;13.426;2023-07-13T10:10:53;24.30;87.70
4757;DHT22;2392;52.578;13.426;2023-07-13T10:13:30;24.40;87.40
4757;DHT22;2392;52.578;13.426;2023-07-13T10:15:59;24.50;88.20
4757;DHT22;2392;52.578;13.426;2023-07-13T10:18:28;24.70;87.10
4757;DHT22;2392;52.578;13.426;2023-07-13T10:21:08;24.70;87.50
4757;DHT22;2392;52.578;13.426;2023-07-13T10:23:37;24.70;88.40
4757;DHT22;2392;52.578;13.426;2023-07-13T10:26:05;24.80;89.30
4757;DHT22;2392;52.578;13.426;2023-07-13T10:28:37;25.10;88.60
4757;DHT22;2392;52.578;13.426;2023-07-13T10:31:08;25.40;86.40
4757;DHT22;2392;52.578;13.426;2023-07-13T10:33:38;25.60;84.30
4757;DHT22;2392;52.578;13.426;2023-07-13T10:36:28;25.60;81.80
4757;DHT22;2392;52.578;13.426;2023-07-13T10:38:57;25.10;81.80
4757;DHT22;2392;52.578;13.426;2023-07-13T10:41:28;25.20;83.20
4757;DHT22;2392;52.578;13.426;2023-07-13T10:43:57;25.80;83.30
4757;DHT22;2392;52.578;13.426;2023-07-13T10:46:26;26.70;82.20
4757;DHT22;2392;52.578;13.426;2023-07-13T10:48:58;27.30;81.00
4757;DHT22;2392;52.578;13.426;2023-07-13T10:51:27;28.30;80.00
4757;DHT22;2392;52.578;13.426;2023-07-13T10:54:14;29.30;78.10
4757;DHT22;2392;52.578;13.426;2023-07-13T10:56:42;30.20;76.90
4757;DHT22;2392;52.578;13.426;2023-07-13T10:59:12;31.10;74.30
4757;DHT22;2392;52.578;13.426;2023-07-13T11:01:55;31.50;72.90
4757;DHT22;2392;52.578;13.426;2023-07-13T11:04:25;31.10;72.10
4757;DHT22;2392;52.578;13.426;2023-07-13T11:06:57;30.90;71.60
4757;DHT22;2392;52.578;13.426;2023-07-13T11:09:36;31.30;71.20
4757;DHT22;2392;52.578;13.426;2023-07-13T11:12:10;31.90;70.10
4757;DHT22;2392;52.578;13.426;2023-07-13T11:15:06;32.50;68.40
4757;DHT22;2392;52.578;13.426;2023-07-13T11:17:45;31.80;67.80
4757;DHT22;2392;52.578;13.426;2023-07-13T11:20:32;32.00;68.80
4757;DHT22;2392;52.578;13.426;2023-07-13T11:23:28;32.90;67.40
4757;DHT22;2392;52.578;13.426;2023-07-13T11:25:56;33.00;64.80
4757;DHT22;2392;52.578;13.426;2023-07-13T11:28:25;31.90;64.50
4757;DHT22;2392;52.578;13.426;2023-07-13T11:31:14;31.40;66.30
4757;DHT22;2392;52.578;13.426;2023-07-13T11:36:24;29.90;68.10
4757;DHT22;2392;52.578;13.426;2023-07-13T11:38:58;29.50;69.60
4757;DHT22;2392;52.578;13.426;2023-07-13T11:41:29;29.40;69.30
4757;DHT22;2392;52.578;13.426;2023-07-13T11:44:06;28.90;66.70
4757;DHT22;2392;52.578;13.426;2023-07-13T11:46:33;28.30;68.90
4757;DHT22;2392;52.578;13.426;2023-07-13T11:49:00;27.90;69.00
4757;DHT22;2392;52.578;13.426;2023-07-13T11:51:30;27.50;68.60
4757;DHT22;2392;52.578;13.426;2023-07-13T11:54:03;26.90;70.10
4757;DHT22;2392;52.578;13.426;2023-07-13T11:56:30;26.60;70.50
4757;DHT22;2392;52.578;13.426;2023-07-13T11:59:10;26.60;70.80
4757;DHT22;2392;52.578;13.426;2023-07-13T12:01:43;26.60;72.50
4757;DHT22;2392;52.578;13.426;2023-07-13T12:04:21;26.70;72.20
4757;DHT22;2392;52.578;13.426;2023-07-13T12:06:55;26.70;71.80
4757;DHT22;2392;52.578;13.426;2023-07-13T12:09:22;26.70;72.10
4757;DHT22;2392;52.578;13.426;2023-07-13T12:11:51;26.60;72.50
4757;DHT22;2392;52.578;13.426;2023-07-13T12:14:19;26.40;70.90
4757;DHT22;2392;52.578;13.426;2023-07-13T12:16:46;26.30;71.30
4757;DHT22;2392;52.578;13.426;2023-07-13T12:19:20;26.20;70.80
4757;DHT22;2392;52.578;13.426;2023-07-13T12:21:47;26.30;71.10
4757;DHT22;2392;52.578;13.426;2023-07-13T12:24:17;26.30;70.40
4757;DHT22;2392;52.578;13.426;2023-07-13T12:26:50;26.50;71.20
4757;DHT22;2392;52.578;13.426;2023-07-13T12:29:18;26.50;72.00
4757;DHT22;2392;52.578;13.426;2023-07-13T12:31:47;26.40;72.10
4757;DHT22;2392;52.578;13.426;2023-07-13T12:34:15;26.50;72.80
4757;DHT22;2392;52.578;13.426;2023-07-13T12:36:46;26.60;73.60
4757;DHT22;2392;52.578;13.426;2023-07-13T12:39:18;26.70;73.60
4757;DHT22;2392;52.578;13.426;2023-07-13T12:41:47;26.70;72.80
4757;DHT22;2392;52.578;13.426;2023-07-13T12:44:18;26.80;73.10
4757;DHT22;2392;52.578;13.426;2023-07-13T12:46:58;26.80;71.20
4757;DHT22;2392;52.578;13.426;2023-07-13T12:49:28;26.70;71.30
4757;DHT22;2392;52.578;13.426;2023-07-13T12:51:57;26.60;71.00
4757;DHT22;2392;52.578;13.426;2023-07-13T12:54:28;26.50;72.30
4757;DHT22;2392;52.578;13.426;2023-07-13T12:56:57;26.60;70.30
4757;DHT22;2392;52.578;13.426;2023-07-13T12:59:30;26.50;70.60
4757;DHT22;2392;52.578;13.426;2023-07-13T13:01:59;26.50;71.90
4757;DHT22;2392;52.578;13.426;2023-07-13T13:04:26;26.60;71.80
4757;DHT22;2392;52.578;13.426;2023-07-13T13:07:03;26.50;71.10
4757;DHT22;2392;52.578;13.426;2023-07-13T13:09:33;26.30;71.60
4757;DHT22;2392;52.578;13.426;2023-07-13T13:12:00;26.30;71.40
4757;DHT22;2392;52.578;13.426;2023-07-13T13:14:28;26.30;73.20
4757;DHT22;2392;52.578;13.426;2023-07-13T13:16:55;26.40;73.90
4757;DHT22;2392;52.578;13.426;2023-07-13T13:19:25;26.50;72.90
4757;DHT22;2392;52.578;13.426;2023-07-13T13:21:53;26.60;73.10
4757;DHT22;2392;52.578;13.426;2023-07-13T13:24:23;26.70;71.70
4757;DHT22;2392;52.578;13.426;2023-07-13T13:26:53;26.90;71.10
4757;DHT22;2392;52.578;13.426;2023-07-13T13:29:23;27.00;71.50
4757;DHT22;2392;52.578;13.426;2023-07-13T13:31:51;26.90;71.70
4757;DHT22;2392;52.578;13.426;2023-07-13T13:34:19;26.90;71.90
4757;DHT22;2392;52.578;13.426;2023-07-13T13:36:49;26.90;72.40
4757;DHT22;2392;52.578;13.426;2023-07-13T13:39:22;26.80;73.10
4757;DHT22;2392;52.578;13.426;2023-07-13T13:41:52;26.90;72.70
4757;DHT22;2392;52.578;13.426;2023-07-13T13:44:20;26.90;72.50
4757;DHT22;2392;52.578;13.426;2023-07-13T13:46:49;26.90;73.40
4757;DHT22;2392;52.578;13.426;2023-07-13T13:49:19;27.00;73.00
4757;DHT22;2392;52.578;13.426;2023-07-13T13:51:48;27.00;73.30
4757;DHT22;2392;52.578;13.426;2023-07-13T13:54:17;27.10;73.10
4757;DHT22;2392;52.578;13.426;2023-07-13T13:56:45;27.20;72.30
4757;DHT22;2392;52.578;13.426;2023-07-13T13:59:14;27.20;71.60
4757;DHT22;2392;52.578;13.426;2023-07-13T14:01:43;27.00;71.60
4757;DHT22;2392;52.578;13.426;2023-07-13T14:04:15;26.90;71.40
4757;DHT22;2392;52.578;13.426;2023-07-13T14:06:43;26.90;73.80
4757;DHT22;2392;52.578;13.426;2023-07-13T14:09:14;26.70;74.00
4757;DHT22;2392;52.578;13.426;2023-07-13T14:11:41;26.60;74.70
4757;DHT22;2392;52.578;13.426;2023-07-13T14:14:14;26.60;74.30
4757;DHT22;2392;52.578;13.426;2023-07-13T14:16:42;26.70;73.10
4757;DHT22;2392;52.578;13.426;2023-07-13T14:19:12;26.70;71.90
4757;DHT22;2392;52.578;13.426;2023-07-13T14:21:40;26.70;72.90
4757;DHT22;2392;52.578;13.426;2023-07-13T14:24:07;26.60;73.20
4757;DHT22;2392;52.578;13.426;2023-07-13T14:26:37;26.50;73.80
4757;DHT22;2392;52.578;13.426;2023-07-13T14:29:12;26.40;72.90
4757;DHT22;2392;52.578;13.426;2023-07-13T14:31:41;26.40;74.00
4757;DHT22;2392;52.578;13.426;2023-07-13T14:34:10;26.30;74.40
4757;DHT22;2392;52.578;13.426;2023-07-13T14:36:39;26.40;74.70
4757;DHT22;2392;52.578;13.426;2023-07-13T14:39:12;26.50;73.70
4757;DHT22;2392;52.578;13.426;2023-07-13T14:41:39;26.60;73.90
4757;DHT22;2392;52.578;13.426;2023-07-13T14:44:11;26.50;74.60
4757;DHT22;2392;52.578;13.426;2023-07-13T14:46:38;26.40;74.00
4757;DHT22;2392;52.578;13.426;2023-07-13T14:51:55;26.20;73.70
4757;DHT22;2392;52.578;13.426;2023-07-13T14:54:23;26.20;73.80
4757;DHT22;2392;52.578;13.426;2023-07-13T14:56:50;26.10;71.90
4757;DHT22;2392;52.578;13.426;2023-07-13T14:59:17;26.20;72.30
4757;DHT22;2392;52.578;13.426;2023-07-13T15:01:45;26.20;71.60
4757;DHT22;2392;52.578;13.426;2023-07-13T15:04:14;26.20;70.80
4757;DHT22;2392;52.578;13.426;2023-07-13T15:06:55;26.10;70.50
4757;DHT22;2392;52.578;13.426;2023-07-13T15:09:23;26.20;70.10
4757;DHT22;2392;52.578;13.426;2023-07-13T15:11:52;26.10;70.40
4757;DHT22;2392;52.578;13.426;2023-07-13T15:14:19;26.00;70.90
4757;DHT22;2392;52.578;13.426;2023-07-13T15:16:47;26.00;71.40
4757;DHT22;2392;52.578;13.426;2023-07-13T15:19:18;26.10;70.90
4757;DHT22;2392;52.578;13.426;2023-07-13T15:21:46;26.10;70.80
4757;DHT22;2392;52.578;13.426;2023-07-13T15:24:14;26.20;71.40
4757;DHT22;2392;52.578;13.426;2023-07-13T15:26:41;26.20;71.60
4757;DHT22;2392;52.578;13.426;2023-07-13T15:29:11;26.30;71.60
4757;DHT22;2392;52.578;13.426;2023-07-13T15:31:39;26.40;71.40
4757;DHT22;2392;52.578;13.426;2023-07-13T15:34:11;26.40;71.70
4757;DHT22;2392;52.578;13.426;2023-07-13T15:36:40;26.20;71.80
4757;DHT22;2392;52.578;13.426;2023-07-13T15:39:13;26.30;72.00
4757;DHT22;2392;52.578;13.426;2023-07-13T15:41:42;26.30;72.60
4757;DHT22;2392;52.578;13.426;2023-07-13T15:44:25;26.30;72.30
4757;DHT22;2392;52.578;13.426;2023-07-13T15:46:54;26.30;73.20
4757;DHT22;2392;52.578;13.426;2023-07-13T15:49:21;26.30;73.80
4757;DHT22;2392;52.578;13.426;2023-07-13T15:51:49;26.30;73.20
4757;DHT22;2392;52.578;13.426;2023-07-13T15:54:18;26.30;72.80
4757;DHT22;2392;52.578;13.426;2023-07-13T15:56:51;26.30;71.70
4757;DHT22;2392;52.578;13.426;2023-07-13T15:59:18;26.40;72.50
4757;DHT22;2392;52.578;13.426;2023-07-13T16:01:45;26.40;72.30
4757;DHT22;2392;52.578;13.426;2023-07-13T16:04:15;26.40;72.40
4757;DHT22;2392;52.578;13.426;2023-07-13T16:06:43;26.20;72.90